createdAt,value
2022-09-12T00:02:17.618Z,7.30
2022-09-12T00:05:20.311Z,7.10
2022-09-12T00:08:23.095Z,7.05
2022-09-12T00:11:26.546Z,7.20
2022-09-12T00:14:29.039Z,7.28
2022-09-12T00:17:34.591Z,7.68
2022-09-12T00:20:42.285Z,7.55
2022-09-12T00:23:45.964Z,7.53
2022-09-12T00:26:48.869Z,8.67
2022-09-12T00:29:51.425Z,8.63
2022-09-12T00:32:54.893Z,8.52
2022-09-12T00:35:57.322Z,9.02
2022-09-12T00:38:59.815Z,8.70
2022-09-12T00:42:02.248Z,8.47
2022-09-12T00:45:05.261Z,8.32
2022-09-12T00:48:16.395Z,8.63
2022-09-12T00:51:19.394Z,9.20
2022-09-12T00:54:25.009Z,8.88
2022-09-12T00:57:31.519Z,9.60
2022-09-12T01:00:34.046Z,10.13
2022-09-12T01:03:36.597Z,10.45
2022-09-12T01:06:43.373Z,10.70
2022-09-12T01:09:46.293Z,9.88
2022-09-12T01:12:49.167Z,9.93
2022-09-12T01:15:52.806Z,9.32
2022-09-12T01:19:04.269Z,9.02
2022-09-12T01:22:22.014Z,8.93
2022-09-12T01:25:57.037Z,9.75
2022-09-12T01:29:23.465Z,8.90
2022-09-12T01:32:35.120Z,9.52
2022-09-12T01:35:55.069Z,9.55
2022-09-12T01:39:01.583Z,9.65
2022-09-12T01:42:10.387Z,9.68
2022-09-12T01:45:28.586Z,9.50
2022-09-12T01:48:57.441Z,9.68
2022-09-12T01:52:21.727Z,10.13
2022-09-12T01:55:28.502Z,10.55
2022-09-12T01:58:39.178Z,9.85
2022-09-12T02:01:47.709Z,9.03
2022-09-12T02:05:01.683Z,9.68
2022-09-12T02:08:12.163Z,8.75
2022-09-12T02:11:14.674Z,8.75
2022-09-12T02:14:24.454Z,8.50
2022-09-12T02:17:27.201Z,8.60
2022-09-12T02:20:47.464Z,8.20
2022-09-12T02:23:56.987Z,8.13
2022-09-12T02:27:10.354Z,8.05
2022-09-12T02:30:16.646Z,8.15
2022-09-12T02:33:27.731Z,7.77
2022-09-12T02:36:43.632Z,7.85
2022-09-12T02:39:46.783Z,7.50
2022-09-12T02:42:49.739Z,7.45
2022-09-12T02:45:52.391Z,7.15
2022-09-12T02:48:56.829Z,7.13
2022-09-12T02:52:00.169Z,6.80
2022-09-12T02:55:05.060Z,6.72
2022-09-12T02:58:12.293Z,6.55
2022-09-12T03:01:23.902Z,6.72
2022-09-12T03:04:47.948Z,6.80
2022-09-12T03:07:57.435Z,6.82
2022-09-12T03:11:14.695Z,6.35
2022-09-12T03:14:29.867Z,6.82
2022-09-12T03:17:56.575Z,6.30
2022-09-12T03:21:37.571Z,6.77
2022-09-12T03:25:03.307Z,6.28
2022-09-12T03:28:09.506Z,7.18
2022-09-12T03:31:16.812Z,7.00
2022-09-12T03:34:20.267Z,6.87
2022-09-12T03:37:22.713Z,6.67
2022-09-12T03:40:25.147Z,6.62
2022-09-12T03:43:27.607Z,6.80
2022-09-12T03:46:30.093Z,6.57
2022-09-12T03:49:32.568Z,6.85
2022-09-12T03:52:35.172Z,6.43
2022-09-12T03:55:39.077Z,6.12
2022-09-12T03:58:41.634Z,6.30
2022-09-12T04:01:44.094Z,6.80
2022-09-12T04:04:48.803Z,7.32
2022-09-12T04:07:51.974Z,6.20
2022-09-12T04:10:54.412Z,6.87
2022-09-12T04:13:56.899Z,7.12
2022-09-12T04:16:59.377Z,6.32
2022-09-12T04:20:02.106Z,7.12
2022-09-12T04:23:04.557Z,7.07
2022-09-12T04:26:07.655Z,7.20
2022-09-12T04:29:11.970Z,7.40
2022-09-12T04:32:15.276Z,6.85
2022-09-12T04:35:17.768Z,7.22
2022-09-12T04:38:20.426Z,6.63
2022-09-12T04:41:25.234Z,6.93
2022-09-12T04:44:27.700Z,7.45
2022-09-12T04:47:30.127Z,7.15
2022-09-12T04:50:32.512Z,7.62
2022-09-12T04:53:35.737Z,7.30
2022-09-12T04:56:40.677Z,7.10
2022-09-12T04:59:43.183Z,7.10
2022-09-12T05:02:45.663Z,7.40
2022-09-12T05:05:48.181Z,8.02
2022-09-12T05:08:52.215Z,7.40
2022-09-12T05:12:09.938Z,6.97
2022-09-12T05:15:12.539Z,6.93
2022-09-12T05:18:15.031Z,6.80
2022-09-12T05:21:20.701Z,7.20
2022-09-12T05:24:23.192Z,7.73
2022-09-12T05:27:25.646Z,7.00
2022-09-12T05:30:28.076Z,7.03
2022-09-12T05:33:31.443Z,7.15
2022-09-12T05:36:34.102Z,8.43
2022-09-12T05:39:36.611Z,7.50
2022-09-12T05:42:39.216Z,7.87
2022-09-12T05:45:42.307Z,8.00
2022-09-12T05:48:46.432Z,6.65
2022-09-12T05:51:49.069Z,5.40
2022-09-12T05:54:51.666Z,5.90
2022-09-12T05:57:54.318Z,5.80
2022-09-12T06:01:01.351Z,5.93
2022-09-12T06:04:06.378Z,5.70
2022-09-12T06:07:09.136Z,5.75
2022-09-12T06:10:12.077Z,5.73
2022-09-12T06:13:14.462Z,5.97
2022-09-12T06:16:21.822Z,5.50
2022-09-12T06:19:25.630Z,5.97
2022-09-12T06:22:28.316Z,5.90
2022-09-12T06:25:30.754Z,6.43
2022-09-12T06:28:35.529Z,6.05
2022-09-12T06:31:39.267Z,5.82
2022-09-12T06:34:41.718Z,5.75
2022-09-12T06:37:44.973Z,6.07
2022-09-12T06:40:47.419Z,6.43
2022-09-12T06:43:50.386Z,6.35
2022-09-12T06:46:54.268Z,6.62
2022-09-12T06:49:56.669Z,6.30
2022-09-12T06:52:59.121Z,6.20
2022-09-12T06:56:03.974Z,5.87
2022-09-12T06:59:06.903Z,6.57
2022-09-12T07:02:10.282Z,6.50
2022-09-12T07:05:14.052Z,6.18
2022-09-12T07:08:16.453Z,6.70
2022-09-12T07:11:24.611Z,5.70
2022-09-12T07:14:27.007Z,5.47
2022-09-12T07:17:29.506Z,6.32
2022-09-12T07:20:35.925Z,6.05
2022-09-12T07:23:40.143Z,5.85
2022-09-12T07:26:42.775Z,5.43
2022-09-12T07:29:46.951Z,5.70
2022-09-12T07:32:54.063Z,6.12
2022-09-12T07:36:01.213Z,6.65
2022-09-12T07:39:03.713Z,6.32
2022-09-12T07:42:07.158Z,5.80
2022-09-12T07:45:10.418Z,5.75
2022-09-12T07:48:12.992Z,5.60
2022-09-12T07:51:15.520Z,5.75
2022-09-12T07:54:18.520Z,5.90
2022-09-12T07:57:21.399Z,6.13
2022-09-12T08:00:23.857Z,5.70
2022-09-12T08:03:26.531Z,5.12
2022-09-12T08:06:32.192Z,5.00
2022-09-12T08:09:35.076Z,4.82
2022-09-12T08:12:37.523Z,5.30
2022-09-12T08:15:39.991Z,5.37
2022-09-12T08:18:42.547Z,5.30
2022-09-12T08:21:45.100Z,5.55
2022-09-12T08:24:48.335Z,5.53
2022-09-12T08:27:51.093Z,5.40
2022-09-12T08:30:54.691Z,5.03
2022-09-12T08:33:58.314Z,5.65
2022-09-12T08:37:01.021Z,5.70
2022-09-12T08:40:06.904Z,5.87
2022-09-12T08:43:45.724Z,5.77
2022-09-12T08:47:12.840Z,5.20
2022-09-12T08:50:19.882Z,5.50
2022-09-12T08:53:23.551Z,5.45
2022-09-12T08:56:31.585Z,5.70
2022-09-12T08:59:38.489Z,5.53
2022-09-12T09:03:00.230Z,4.82
2022-09-12T09:06:51.079Z,5.12
2022-09-12T09:10:09.355Z,5.30
2022-09-12T09:13:37.920Z,5.07
2022-09-12T09:16:43.035Z,4.67
2022-09-12T09:19:59.958Z,5.20
2022-09-12T09:23:17.598Z,5.37
2022-09-12T09:26:27.457Z,5.03
2022-09-12T09:29:41.399Z,5.32
2022-09-12T09:32:46.207Z,4.63
2022-09-12T09:35:56.959Z,5.47
2022-09-12T09:39:13.550Z,5.05
2022-09-12T09:42:18.693Z,5.25
2022-09-12T09:45:24.504Z,5.80
2022-09-12T09:48:29.910Z,5.30
2022-09-12T09:51:37.268Z,5.43
2022-09-12T09:54:44.964Z,5.87
2022-09-12T09:57:47.830Z,5.30
2022-09-12T10:00:54.847Z,5.50
2022-09-12T10:03:59.491Z,4.93
2022-09-12T10:07:04.447Z,5.28
2022-09-12T10:10:07.803Z,4.93
2022-09-12T10:13:24.334Z,4.62
2022-09-12T10:16:35.608Z,4.78
2022-09-12T10:19:40.728Z,5.07
2022-09-12T10:22:48.293Z,4.57
2022-09-12T10:25:56.965Z,4.53
2022-09-12T10:29:04.757Z,4.90
2022-09-12T10:32:08.476Z,5.15
2022-09-12T10:35:23.752Z,4.90
2022-09-12T10:38:28.393Z,4.35
2022-09-12T10:41:38.338Z,5.10
2022-09-12T10:44:53.435Z,4.80
2022-09-12T10:48:05.525Z,5.10
2022-09-12T10:51:25.334Z,5.07
2022-09-12T10:54:28.816Z,5.60
2022-09-12T10:57:52.858Z,5.07
2022-09-12T11:01:02.438Z,4.57
2022-09-12T11:04:33.036Z,4.20
2022-09-12T11:07:35.599Z,4.77
2022-09-12T11:11:12.622Z,4.70
2022-09-12T11:14:25.330Z,4.72
2022-09-12T11:17:57.485Z,4.10
2022-09-12T11:21:17.704Z,4.22
2022-09-12T11:24:31.630Z,4.47
2022-09-12T11:27:46.083Z,4.15
2022-09-12T11:30:55.536Z,4.12
2022-09-12T11:33:59.522Z,4.30
2022-09-12T11:37:37.482Z,4.20
2022-09-12T11:40:57.052Z,4.10
2022-09-12T11:44:22.772Z,4.20
2022-09-12T11:47:25.612Z,3.97
2022-09-12T11:50:32.442Z,4.10
2022-09-12T11:53:39.128Z,4.30
2022-09-12T11:56:51.499Z,4.13
2022-09-12T11:59:58.810Z,3.70
2022-09-12T12:03:07.382Z,3.97
2022-09-12T12:06:22.060Z,4.10
2022-09-12T12:09:24.797Z,4.30
2022-09-12T12:12:29.169Z,3.80
2022-09-12T12:15:32.033Z,4.10
2022-09-12T12:18:37.915Z,4.25
2022-09-12T12:21:42.699Z,4.22
2022-09-12T12:24:55.215Z,4.93
2022-09-12T12:28:02.002Z,4.20
2022-09-12T12:31:05.599Z,4.40
2022-09-12T12:34:22.934Z,4.10
2022-09-12T13:03:02.985Z,4.33
2022-09-12T13:06:07.421Z,4.80
2022-09-12T13:09:51.912Z,4.43
2022-09-12T13:12:56.851Z,4.30
2022-09-12T13:15:59.510Z,4.43
2022-09-12T13:19:08.650Z,4.00
2022-09-12T13:22:11.219Z,4.30
2022-09-12T13:25:23.183Z,4.28
2022-09-12T13:28:27.223Z,4.10
2022-09-12T13:31:30.713Z,4.70
2022-09-12T13:35:12.365Z,4.80
2022-09-12T13:38:52.593Z,4.10
2022-09-12T13:42:32.340Z,4.50
2022-09-12T13:45:38.378Z,4.00
2022-09-12T13:48:41.344Z,3.78
2022-09-12T13:51:43.974Z,3.70
2022-09-12T13:54:50.492Z,4.30
2022-09-12T13:57:58.363Z,3.75
2022-09-12T14:01:10.027Z,3.70
2022-09-12T14:04:43.485Z,3.70
2022-09-12T14:07:55.342Z,3.47
2022-09-12T14:10:58.880Z,3.30
2022-09-12T14:14:05.353Z,3.90
2022-09-12T14:17:23.691Z,4.05
2022-09-12T14:20:33.292Z,3.78
2022-09-12T14:23:41.717Z,3.73
2022-09-12T14:26:45.080Z,3.92
2022-09-12T14:29:47.832Z,4.28
2022-09-12T14:33:12.466Z,3.70
2022-09-12T14:36:24.265Z,4.10
2022-09-12T14:39:32.939Z,3.77
2022-09-12T14:42:35.676Z,3.75
2022-09-12T14:45:40.142Z,4.00
2022-09-12T14:49:07.146Z,3.90
2022-09-12T14:52:22.241Z,4.00
2022-09-12T14:55:30.374Z,4.07
2022-09-12T14:58:33.578Z,4.20
2022-09-12T15:01:37.951Z,4.05
2022-09-12T15:04:52.676Z,4.00
2022-09-12T15:07:58.045Z,4.37
2022-09-12T15:11:06.692Z,4.10
2022-09-12T15:14:15.619Z,3.90
2022-09-12T15:17:18.339Z,3.87
2022-09-12T15:20:22.604Z,3.33
2022-09-12T15:23:47.177Z,3.80
2022-09-12T15:26:51.287Z,3.70
2022-09-12T15:29:54.084Z,3.53
2022-09-12T15:33:00.279Z,3.60
2022-09-12T15:36:13.583Z,3.47
2022-09-12T15:39:16.134Z,3.80
2022-09-12T15:42:28.412Z,3.77
2022-09-12T15:45:33.002Z,3.20
2022-09-12T15:48:36.062Z,3.45
2022-09-12T15:51:38.916Z,3.35
2022-09-12T15:54:41.720Z,3.58
2022-09-12T15:57:44.582Z,3.30
2022-09-12T16:00:47.180Z,3.17
2022-09-12T16:03:49.688Z,3.35
2022-09-12T16:06:54.731Z,3.08
2022-09-12T16:09:57.405Z,3.30
2022-09-12T16:13:00.198Z,3.80
2022-09-12T16:16:03.122Z,3.58
2022-09-12T16:19:05.724Z,3.30
2022-09-12T16:22:08.246Z,3.30
2022-09-12T16:25:10.893Z,3.22
2022-09-12T16:28:13.385Z,3.07
2022-09-12T16:31:16.102Z,3.42
2022-09-12T16:34:18.666Z,3.30
2022-09-12T16:37:21.438Z,3.55
2022-09-12T16:40:23.872Z,3.20
2022-09-12T16:43:26.417Z,2.97
2022-09-12T16:46:32.058Z,3.20
2022-09-12T16:49:34.830Z,3.20
2022-09-12T16:52:37.814Z,2.92
2022-09-12T16:55:40.409Z,4.32
2022-09-12T16:58:43.764Z,3.70
2022-09-12T17:01:46.428Z,3.03
2022-09-12T17:04:52.815Z,3.10
2022-09-12T17:07:55.467Z,3.35
2022-09-12T17:11:06.122Z,3.37
2022-09-12T17:14:10.922Z,3.60
2022-09-12T17:17:13.819Z,3.47
2022-09-12T17:20:16.401Z,3.22
2022-09-12T17:23:19.084Z,3.05
2022-09-12T17:26:22.315Z,3.40
2022-09-12T17:29:25.197Z,3.10
2022-09-12T17:32:27.792Z,3.42
2022-09-12T17:35:30.507Z,3.42
2022-09-12T17:38:34.937Z,3.53
2022-09-12T17:41:38.173Z,3.97
2022-09-12T17:44:41.829Z,3.20
2022-09-12T17:47:44.380Z,3.03
2022-09-12T17:50:48.116Z,3.40
2022-09-12T17:54:12.030Z,3.20
2022-09-12T17:57:14.936Z,3.10
2022-09-12T18:00:17.863Z,2.97
2022-09-12T18:03:24.472Z,2.95
2022-09-12T18:06:28.550Z,3.20
2022-09-12T18:09:31.135Z,2.90
2022-09-12T18:12:35.915Z,3.28
2022-09-12T18:15:38.622Z,2.90
2022-09-12T18:18:41.413Z,2.70
2022-09-12T18:21:44.158Z,3.42
2022-09-12T18:24:47.000Z,3.22
2022-09-12T18:27:50.031Z,3.30
2022-09-12T18:30:54.658Z,3.17
2022-09-12T18:33:59.962Z,4.18
2022-09-12T18:37:07.208Z,3.17
2022-09-12T18:40:10.477Z,2.92
2022-09-12T18:43:14.455Z,2.92
2022-09-12T18:46:18.936Z,2.70
2022-09-12T18:49:21.857Z,2.97
2022-09-12T18:52:26.074Z,2.90
2022-09-12T18:55:33.167Z,2.37
2022-09-12T18:58:36.677Z,2.78
2022-09-12T19:01:39.291Z,2.80
2022-09-12T19:04:41.996Z,2.40
2022-09-12T19:07:44.798Z,2.60
2022-09-12T19:10:56.655Z,3.10
2022-09-12T19:13:59.860Z,3.30
2022-09-12T19:17:02.837Z,2.93
2022-09-12T19:20:06.284Z,2.50
2022-09-12T19:23:08.841Z,2.85
2022-09-12T19:26:13.770Z,2.75
2022-09-12T19:29:16.829Z,2.40
2022-09-12T19:32:19.443Z,2.40
2022-09-12T19:35:21.982Z,2.62
2022-09-12T19:38:24.515Z,2.95
2022-09-12T19:41:27.895Z,2.58
2022-09-12T19:44:30.621Z,3.20
2022-09-12T19:47:34.576Z,3.00
2022-09-12T19:50:37.290Z,2.80
2022-09-12T19:53:40.996Z,2.90
2022-09-12T19:56:43.619Z,2.35
2022-09-12T19:59:46.407Z,2.80
2022-09-12T20:02:52.922Z,2.77
2022-09-12T20:06:02.281Z,2.90
2022-09-12T20:09:04.921Z,2.60
2022-09-12T20:12:08.023Z,2.87
2022-09-12T20:15:14.243Z,2.80
2022-09-12T20:18:16.791Z,2.80
2022-09-12T20:21:22.068Z,3.30
2022-09-12T20:24:24.595Z,2.80
2022-09-12T20:27:27.143Z,3.25
2022-09-12T20:30:31.007Z,2.70
2022-09-12T20:33:34.347Z,2.80
2022-09-12T20:36:36.831Z,2.53
2022-09-12T20:39:39.339Z,3.08
2022-09-12T20:42:42.470Z,2.62
2022-09-12T20:45:44.943Z,2.70
2022-09-12T20:48:47.488Z,2.77
2022-09-12T20:51:50.447Z,2.62
2022-09-12T20:54:52.992Z,2.70
2022-09-12T20:57:55.472Z,2.70
2022-09-12T21:00:57.892Z,2.85
2022-09-12T21:04:01.359Z,2.70
2022-09-12T21:07:03.769Z,2.53
2022-09-12T21:10:06.525Z,2.67
2022-09-12T21:13:10.409Z,2.90
2022-09-12T21:16:18.013Z,2.55
2022-09-12T21:19:20.582Z,2.83
2022-09-12T21:22:23.253Z,3.03
2022-09-12T21:25:25.804Z,2.67
2022-09-12T21:28:28.742Z,3.25
2022-09-12T21:31:31.268Z,2.47
2022-09-12T21:34:34.106Z,2.60
2022-09-12T21:37:36.561Z,2.75
2022-09-12T21:40:39.015Z,2.50
2022-09-12T21:43:42.067Z,2.55
2022-09-12T21:46:44.921Z,2.45
2022-09-12T21:49:47.333Z,2.67
2022-09-12T21:52:49.841Z,2.35
2022-09-12T21:56:00.955Z,2.70
2022-09-12T21:59:03.766Z,2.42
2022-09-12T22:02:08.724Z,2.47
2022-09-12T22:05:14.422Z,2.53
2022-09-12T22:08:18.024Z,2.22
2022-09-12T22:11:23.836Z,2.33
2022-09-12T22:14:26.497Z,2.50
2022-09-12T22:17:29.185Z,2.50
2022-09-12T22:20:32.226Z,2.23
2022-09-12T22:23:53.631Z,2.37
2022-09-12T22:26:57.299Z,2.37
2022-09-12T22:29:59.782Z,2.42
2022-09-12T22:33:02.359Z,2.70
2022-09-12T22:36:05.327Z,2.33
2022-09-12T22:39:08.641Z,2.60
2022-09-12T22:42:11.288Z,2.70
2022-09-12T22:45:13.947Z,2.25
2022-09-12T22:48:17.257Z,2.20
2022-09-12T22:51:19.968Z,2.37
2022-09-12T22:54:22.738Z,2.55
2022-09-12T22:57:25.647Z,2.25
2022-09-12T23:00:28.125Z,2.35
2022-09-12T23:03:30.696Z,2.30
2022-09-12T23:06:33.829Z,2.30
2022-09-12T23:09:36.474Z,2.20
2022-09-12T23:12:38.863Z,2.42
2022-09-12T23:15:41.606Z,2.05
2022-09-12T23:18:44.298Z,2.20
2022-09-12T23:21:46.738Z,2.67
2022-09-12T23:24:49.234Z,2.37
2022-09-12T23:27:52.091Z,2.70
2022-09-12T23:30:56.105Z,2.60
2022-09-12T23:34:02.076Z,2.55
2022-09-12T23:37:07.530Z,2.70
2022-09-12T23:40:10.629Z,2.58
2022-09-12T23:43:13.070Z,2.50
2022-09-12T23:46:16.664Z,2.53
2022-09-12T23:49:20.206Z,2.97
2022-09-12T23:52:22.663Z,2.50
2022-09-12T23:55:25.148Z,2.40
2022-09-12T23:58:28.012Z,2.50
